Time;durP1;ratioP1;P1;durP2;ratioP2;P2;SDS_P1;SDS_P2;PMS_P1;PMS_P2;Temp;Humidity;BMP_temperature;BMP_pressure;BME280_temperature;BME280_humidity;BME280_pressure;Samples;Min_cycle;Max_cycle;Signal;HPM_P1;HPM_P2
2023/01/30 00:01:33;;;;;;;38.43;30.33;;;;;;;;;;4960272;28;20242;-81
2023/01/30 00:04:01;;;;;;;41.93;27.27;;;;;;;;;;4972815;28;20240;-81
2023/01/30 00:06:27;;;;;;;31.83;26.93;;;;;;;;;;4983490;28;20225;-82
2023/01/30 00:08:52;;;;;;;33.50;27.27;;;;;;;;;;4985745;28;20221;-84
2023/01/30 00:11:20;;;;;;;28.97;25.80;;;;;;;;;;4982774;28;20244;-79
2023/01/30 00:13:47;;;;;;;31.33;26.50;;;;;;;;;;4973743;28;20291;-82
2023/01/30 00:16:17;;;;;;;27.67;22.80;;;;;;;;;;4972878;28;20240;-81
2023/01/30 00:18:42;;;;;;;30.83;26.37;;;;;;;;;;4972157;28;20300;-83
2023/01/30 00:21:11;;;;;;;34.07;26.60;;;;;;;;;;4986807;28;20236;-83
2023/01/30 00:23:39;;;;;;;33.00;27.80;;;;;;;;;;4974693;28;20296;-83
2023/01/30 00:26:05;;;;;;;33.70;26.57;;;;;;;;;;4979004;28;20229;-81
2023/01/30 00:28:31;;;;;;;33.03;26.53;;;;;;;;;;4974775;28;20244;-83
2023/01/30 00:31:03;;;;;;;29.07;23.60;;;;;;;;;;4982908;28;20245;-80
2023/01/30 00:33:29;;;;;;;27.63;24.67;;;;;;;;;;4952351;28;20225;-84
2023/01/30 00:35:55;;;;;;;39.37;27.47;;;;;;;;;;4958773;28;20244;-81
2023/01/30 00:38:21;;;;;;;30.43;25.00;;;;;;;;;;4975747;28;20225;-84
2023/01/30 00:40:46;;;;;;;28.40;25.30;;;;;;;;;;4987308;28;20284;-81
2023/01/30 00:48:48;;;;;;;35.43;26.00;;;;;;;;;;4971602;28;20252;-83
2023/01/30 00:51:16;;;;;;;31.13;23.67;;;;;;;;;;4974391;28;20229;-82
2023/01/30 00:53:47;;;;;;;32.73;26.40;;;;;;;;;;4974329;28;20225;-80
2023/01/30 00:56:13;;;;;;;34.20;27.67;;;;;;;;;;4939920;28;20225;-81
2023/01/30 00:58:43;;;;;;;31.07;26.77;;;;;;;;;;4959270;28;20236;-81
2023/01/30 01:01:10;;;;;;;28.20;23.07;;;;;;;;;;4991003;28;20213;-82
2023/01/30 01:03:36;;;;;;;32.50;25.87;;;;;;;;;;4960182;28;20610;-83
2023/01/30 01:06:02;;;;;;;32.30;23.80;;;;;;;;;;5000671;28;20280;-80
2023/01/30 01:08:27;;;;;;;30.10;26.73;;;;;;;;;;4989746;28;20234;-79
2023/01/30 01:10:54;;;;;;;32.80;26.43;;;;;;;;;;5015510;28;20305;-81
2023/01/30 01:13:20;;;;;;;30.37;25.93;;;;;;;;;;4958717;28;20601;-84
2023/01/30 01:15:50;;;;;;;32.97;27.20;;;;;;;;;;4976091;28;20225;-81
2023/01/30 01:18:18;;;;;;;28.40;25.10;;;;;;;;;;4992089;28;20248;-81
2023/01/30 01:20:47;;;;;;;31.07;25.77;;;;;;;;;;4979178;28;20210;-82
2023/01/30 01:23:12;;;;;;;28.97;24.30;;;;;;;;;;4972707;28;20252;-81
2023/01/30 01:25:38;;;;;;;27.33;24.40;;;;;;;;;;4990090;28;20221;-84
2023/01/30 01:28:06;;;;;;;28.53;24.00;;;;;;;;;;4976460;28;20216;-82
2023/01/30 01:30:37;;;;;;;30.47;26.27;;;;;;;;;;4985195;28;20598;-84
2023/01/30 01:33:02;;;;;;;32.47;25.13;;;;;;;;;;4995279;28;20224;-81
2023/01/30 01:35:28;;;;;;;30.93;24.77;;;;;;;;;;4983507;28;20229;-84
2023/01/30 01:37:58;;;;;;;35.50;25.87;;;;;;;;;;4956858;28;20279;-82
2023/01/30 01:43:21;;;;;;;28.00;23.30;;;;;;;;;;4958113;28;20221;-81
2023/01/30 01:45:48;;;;;;;31.70;25.40;;;;;;;;;;4974361;28;20605;-81
2023/01/30 01:48:24;;;;;;;34.40;25.03;;;;;;;;;;4977557;28;20214;-80
2023/01/30 01:50:56;;;;;;;32.57;26.53;;;;;;;;;;4943183;28;20230;-83
2023/01/30 01:53:24;;;;;;;32.43;25.07;;;;;;;;;;4969622;28;20243;-82
2023/01/30 01:55:50;;;;;;;29.53;23.50;;;;;;;;;;4965785;28;20225;-80
2023/01/30 01:58:38;;;;;;;31.23;25.17;;;;;;;;;;4975527;28;20209;-81
2023/01/30 02:01:04;;;;;;;30.97;25.87;;;;;;;;;;4980645;28;20217;-83
2023/01/30 02:03:32;;;;;;;34.20;25.20;;;;;;;;;;4979036;28;20221;-82
2023/01/30 02:06:00;;;;;;;32.77;24.10;;;;;;;;;;4981166;28;20834;-82
2023/01/30 02:08:28;;;;;;;35.60;24.17;;;;;;;;;;4968311;28;20296;-81
2023/01/30 02:11:06;;;;;;;31.83;24.30;;;;;;;;;;4966116;28;20296;-82
2023/01/30 02:13:34;;;;;;;33.40;24.50;;;;;;;;;;5003234;28;20233;-80
2023/01/30 02:16:01;;;;;;;30.10;23.50;;;;;;;;;;4991749;28;20259;-80
2023/01/30 02:18:27;;;;;;;32.87;26.40;;;;;;;;;;4945613;28;20213;-83
2023/01/30 02:21:19;;;;;;;34.37;26.27;;;;;;;;;;4967294;28;20221;-82
2023/01/30 02:23:57;;;;;;;29.87;24.30;;;;;;;;;;4993025;28;20229;-82
2023/01/30 02:26:46;;;;;;;29.77;24.83;;;;;;;;;;4973919;28;20236;-82
2023/01/30 02:29:23;;;;;;;33.83;25.93;;;;;;;;;;4972834;28;20686;-80
2023/01/30 02:32:14;;;;;;;31.03;23.90;;;;;;;;;;4955515;28;20253;-83
2023/01/30 02:35:30;;;;;;;30.13;24.57;;;;;;;;;;4962721;28;20233;-80
2023/01/30 02:38:26;;;;;;;29.57;23.97;;;;;;;;;;4961960;28;20248;-81
2023/01/30 02:41:07;;;;;;;30.10;25.20;;;;;;;;;;5008999;28;20813;-82
2023/01/30 02:43:50;;;;;;;30.97;25.33;;;;;;;;;;4994995;28;20228;-82
2023/01/30 02:46:41;;;;;;;28.07;23.20;;;;;;;;;;4976091;28;20229;-82
2023/01/30 02:49:10;;;;;;;25.63;22.67;;;;;;;;;;4978979;28;20248;-82
2023/01/30 02:51:41;;;;;;;24.07;20.17;;;;;;;;;;4944557;28;20230;-83
2023/01/30 02:54:09;;;;;;;27.03;23.40;;;;;;;;;;4953609;28;20221;-82
2023/01/30 02:56:52;;;;;;;28.60;23.60;;;;;;;;;;4972616;28;20237;-85
2023/01/30 02:59:38;;;;;;;23.83;21.27;;;;;;;;;;4953281;28;20214;-83
2023/01/30 03:02:27;;;;;;;21.27;19.00;;;;;;;;;;4934766;28;20218;-81
2023/01/30 03:04:59;;;;;;;24.93;20.20;;;;;;;;;;4970732;28;20674;-83
2023/01/30 03:07:54;;;;;;;24.00;19.77;;;;;;;;;;4976576;28;20280;-81
2023/01/30 03:10:48;;;;;;;22.63;18.43;;;;;;;;;;4977693;28;20218;-81
2023/01/30 03:13:20;;;;;;;20.13;17.13;;;;;;;;;;4983377;28;20367;-81
2023/01/30 03:15:56;;;;;;;20.00;17.90;;;;;;;;;;4996251;28;20224;-85
2023/01/30 03:18:24;;;;;;;19.70;17.80;;;;;;;;;;4975181;28;20709;-83
2023/01/30 03:20:50;;;;;;;19.63;17.73;;;;;;;;;;4955560;28;20717;-81
2023/01/30 03:23:17;;;;;;;19.80;17.70;;;;;;;;;;4971787;28;20213;-83
2023/01/30 03:25:43;;;;;;;18.93;16.93;;;;;;;;;;4996717;28;20244;-83
2023/01/30 03:28:08;;;;;;;18.57;16.57;;;;;;;;;;4985512;28;20625;-83
2023/01/30 03:30:34;;;;;;;20.30;18.20;;;;;;;;;;4964850;28;20286;-83
2023/01/30 03:33:06;;;;;;;18.60;16.70;;;;;;;;;;4971130;28;20231;-82
2023/01/30 03:35:34;;;;;;;18.67;16.67;;;;;;;;;;4966741;28;20233;-83
2023/01/30 03:38:01;;;;;;;17.63;15.80;;;;;;;;;;4975669;28;20209;-82
2023/01/30 03:40:27;;;;;;;18.27;16.33;;;;;;;;;;4959703;28;21105;-81
2023/01/30 03:42:53;;;;;;;18.00;16.10;;;;;;;;;;4980243;28;20221;-83
2023/01/30 03:45:19;;;;;;;19.33;16.87;;;;;;;;;;4984653;28;20218;-84
2023/01/30 03:47:46;;;;;;;16.03;14.43;;;;;;;;;;4959045;28;20237;-83
2023/01/30 03:50:12;;;;;;;17.73;15.93;;;;;;;;;;4957964;28;20225;-86
2023/01/30 03:52:37;;;;;;;15.87;14.27;;;;;;;;;;4984093;28;20233;-82
2023/01/30 03:55:07;;;;;;;16.90;14.50;;;;;;;;;;4942169;28;20225;-82
2023/01/30 03:57:34;;;;;;;17.07;14.97;;;;;;;;;;4991069;28;20232;-84
2023/01/30 04:00:00;;;;;;;17.20;14.97;;;;;;;;;;4971037;28;20278;-82
2023/01/30 04:02:27;;;;;;;15.80;14.20;;;;;;;;;;4977088;28;20733;-81
2023/01/30 04:04:54;;;;;;;16.07;14.43;;;;;;;;;;4987170;28;20747;-84
2023/01/30 04:07:20;;;;;;;16.50;14.80;;;;;;;;;;4987186;28;20220;-80
2023/01/30 04:09:47;;;;;;;15.63;13.97;;;;;;;;;;4985393;28;20698;-83
2023/01/30 04:12:16;;;;;;;15.80;14.23;;;;;;;;;;4983844;28;20275;-83
2023/01/30 04:14:50;;;;;;;22.30;14.23;;;;;;;;;;4972269;28;20236;-82
2023/01/30 04:17:38;;;;;;;14.43;12.97;;;;;;;;;;4975321;28;20222;-81
2023/01/30 04:20:33;;;;;;;13.83;11.80;;;;;;;;;;4987520;28;20710;-81
2023/01/30 04:22:59;;;;;;;14.50;12.90;;;;;;;;;;4949746;28;20317;-82
2023/01/30 04:25:26;;;;;;;12.67;11.47;;;;;;;;;;4972244;28;20214;-80
2023/01/30 04:27:54;;;;;;;14.00;12.53;;;;;;;;;;4993144;28;20252;-82
2023/01/30 04:30:23;;;;;;;13.10;11.80;;;;;;;;;;4971914;28;20225;-80
2023/01/30 04:32:53;;;;;;;14.17;11.20;;;;;;;;;;4967494;28;20261;-80
2023/01/30 04:35:19;;;;;;;12.27;11.07;;;;;;;;;;4993441;28;20227;-80
2023/01/30 04:37:47;;;;;;;13.00;11.70;;;;;;;;;;4993324;28;20229;-84
2023/01/30 04:40:18;;;;;;;13.37;11.93;;;;;;;;;;4952588;28;20222;-80
2023/01/30 04:42:43;;;;;;;12.77;11.47;;;;;;;;;;4952516;28;20701;-80
2023/01/30 04:45:27;;;;;;;12.63;11.33;;;;;;;;;;4972670;28;20236;-79
2023/01/30 04:47:53;;;;;;;12.90;11.53;;;;;;;;;;4962186;28;20229;-80
2023/01/30 04:50:19;;;;;;;12.73;11.50;;;;;;;;;;4991022;28;20602;-80
2023/01/30 04:52:45;;;;;;;13.07;11.83;;;;;;;;;;4981013;28;20261;-79
2023/01/30 04:55:14;;;;;;;12.47;11.13;;;;;;;;;;4950715;28;20226;-81
2023/01/30 04:57:40;;;;;;;11.53;10.43;;;;;;;;;;4978868;28;20221;-80
2023/01/30 05:00:08;;;;;;;11.43;10.33;;;;;;;;;;4982627;28;20220;-80
2023/01/30 05:02:37;;;;;;;13.67;11.13;;;;;;;;;;4949580;28;20228;-81
2023/01/30 05:05:03;;;;;;;11.80;10.70;;;;;;;;;;4981475;28;20218;-80
2023/01/30 05:07:28;;;;;;;11.63;10.53;;;;;;;;;;4962568;28;20600;-80
2023/01/30 05:09:56;;;;;;;11.63;10.50;;;;;;;;;;4961751;28;20231;-78
2023/01/30 05:12:24;;;;;;;10.43;9.47;;;;;;;;;;4978705;28;20225;-80
2023/01/30 05:14:52;;;;;;;10.17;9.27;;;;;;;;;;4982775;28;20237;-80
2023/01/30 05:17:20;;;;;;;9.93;9.03;;;;;;;;;;4969598;28;20641;-79
2023/01/30 05:19:48;;;;;;;9.30;8.50;;;;;;;;;;4988079;28;20218;-80
2023/01/30 05:22:14;;;;;;;7.23;6.60;;;;;;;;;;4985235;28;20833;-81
2023/01/30 05:24:39;;;;;;;7.83;7.13;;;;;;;;;;4971557;28;20221;-79
2023/01/30 05:27:08;;;;;;;6.43;5.83;;;;;;;;;;4987781;28;20225;-79
2023/01/30 05:29:36;;;;;;;4.93;4.43;;;;;;;;;;4973259;28;20238;-80
2023/01/30 05:32:02;;;;;;;5.17;4.67;;;;;;;;;;4994596;28;20228;-80
2023/01/30 05:34:28;;;;;;;5.13;4.40;;;;;;;;;;4953625;28;20230;-78
2023/01/30 05:36:56;;;;;;;4.70;3.93;;;;;;;;;;4992244;28;20309;-80
2023/01/30 05:39:21;;;;;;;3.97;3.57;;;;;;;;;;4968092;28;20224;-80
2023/01/30 05:41:49;;;;;;;4.90;3.30;;;;;;;;;;4978130;28;20230;-79
2023/01/30 05:44:17;;;;;;;3.70;2.70;;;;;;;;;;4990939;28;20240;-81
2023/01/30 05:46:45;;;;;;;3.17;2.57;;;;;;;;;;4948549;28;20252;-81
2023/01/30 05:49:10;;;;;;;2.60;2.40;;;;;;;;;;4975424;28;20221;-79
2023/01/30 05:51:36;;;;;;;2.27;1.90;;;;;;;;;;4975402;28;20232;-79
2023/01/30 05:54:04;;;;;;;4.40;2.33;;;;;;;;;;4966975;28;20241;-79
2023/01/30 05:56:32;;;;;;;4.03;1.83;;;;;;;;;;4957710;28;20225;-79
2023/01/30 05:58:58;;;;;;;4.27;2.30;;;;;;;;;;4975829;28;20725;-81
2023/01/30 06:01:23;;;;;;;5.80;2.30;;;;;;;;;;4971035;28;20313;-80
2023/01/30 06:03:49;;;;;;;3.30;2.33;;;;;;;;;;4982931;28;20676;-80
2023/01/30 06:06:14;;;;;;;4.37;1.80;;;;;;;;;;4972047;28;20217;-80
2023/01/30 06:08:40;;;;;;;3.90;2.10;;;;;;;;;;4948605;28;20251;-79
2023/01/30 06:11:15;;;;;;;3.13;1.47;;;;;;;;;;4979557;28;20717;-78
2023/01/30 06:13:40;;;;;;;3.10;1.73;;;;;;;;;;4954541;28;20356;-81
2023/01/30 06:16:10;;;;;;;3.67;2.03;;;;;;;;;;5010923;28;20249;-79
2023/01/30 06:18:36;;;;;;;5.70;1.80;;;;;;;;;;4993237;28;20237;-78
2023/01/30 06:21:02;;;;;;;4.30;1.70;;;;;;;;;;4942792;28;20329;-81
2023/01/30 06:23:29;;;;;;;4.80;1.93;;;;;;;;;;4965670;28;20229;-80
2023/01/30 06:25:57;;;;;;;5.50;1.67;;;;;;;;;;4966717;28;20229;-81
2023/01/30 06:28:23;;;;;;;6.07;1.63;;;;;;;;;;4968022;28;20777;-81
2023/01/30 06:30:51;;;;;;;2.67;1.67;;;;;;;;;;4972231;28;20213;-80
2023/01/30 06:33:16;;;;;;;3.93;1.63;;;;;;;;;;4956032;28;20251;-82
2023/01/30 06:35:42;;;;;;;7.20;2.00;;;;;;;;;;4992390;28;20220;-79
2023/01/30 06:38:13;;;;;;;4.60;1.70;;;;;;;;;;4989564;28;20233;-79
2023/01/30 06:40:39;;;;;;;3.27;1.47;;;;;;;;;;4989456;28;20217;-78
2023/01/30 06:43:07;;;;;;;3.20;0.90;;;;;;;;;;4981256;28;20279;-79
2023/01/30 06:45:33;;;;;;;3.03;0.90;;;;;;;;;;4976132;28;20374;-79
2023/01/30 06:47:58;;;;;;;2.73;0.77;;;;;;;;;;4991576;28;20642;-79
2023/01/30 06:50:26;;;;;;;3.90;0.80;;;;;;;;;;4976651;28;20223;-78
2023/01/30 06:52:54;;;;;;;2.33;0.80;;;;;;;;;;4964195;28;20233;-79
2023/01/30 06:55:27;;;;;;;1.97;0.73;;;;;;;;;;4977456;28;20225;-79
2023/01/30 06:58:11;;;;;;;1.17;0.70;;;;;;;;;;4988612;28;20295;-77
2023/01/30 07:00:41;;;;;;;1.67;0.90;;;;;;;;;;4978345;28;20232;-77
2023/01/30 07:03:13;;;;;;;1.20;0.50;;;;;;;;;;4967496;28;20222;-80
2023/01/30 07:05:42;;;;;;;0.10;0.10;;;;;;;;;;4978162;28;20624;-78
2023/01/30 07:08:10;;;;;;;0.10;0.10;;;;;;;;;;4993865;28;20221;-79
2023/01/30 07:10:36;;;;;;;0.10;0.10;;;;;;;;;;4974715;28;20966;-79
2023/01/30 07:13:04;;;;;;;0.10;0.10;;;;;;;;;;4970180;28;20316;-79
2023/01/30 07:15:30;;;;;;;0.10;0.10;;;;;;;;;;4992344;28;20308;-80
2023/01/30 07:17:55;;;;;;;0.10;0.10;;;;;;;;;;4961101;28;20304;-80
2023/01/30 07:20:21;;;;;;;0.10;0.10;;;;;;;;;;4992306;28;20221;-81
2023/01/30 07:22:50;;;;;;;0.10;0.10;;;;;;;;;;4969194;28;21043;-82
2023/01/30 07:25:16;;;;;;;0.10;0.10;;;;;;;;;;4973453;28;20237;-81
2023/01/30 07:27:44;;;;;;;0.23;0.23;;;;;;;;;;4983527;28;20387;-80
2023/01/30 07:30:13;;;;;;;0.10;0.10;;;;;;;;;;4975712;28;20597;-79
2023/01/30 07:32:41;;;;;;;0.60;0.60;;;;;;;;;;4965439;28;20260;-79
2023/01/30 07:35:09;;;;;;;0.10;0.10;;;;;;;;;;4972522;28;20313;-81
2023/01/30 07:37:35;;;;;;;0.27;0.27;;;;;;;;;;4991115;28;20229;-81
2023/01/30 07:40:00;;;;;;;12.50;1.30;;;;;;;;;;4993222;28;20741;-80
2023/01/30 07:42:26;;;;;;;0.10;0.10;;;;;;;;;;4970634;28;20225;-82
2023/01/30 07:44:51;;;;;;;0.10;0.10;;;;;;;;;;4991478;28;20230;-80
2023/01/30 07:47:18;;;;;;;0.10;0.10;;;;;;;;;;4973935;28;20224;-79
2023/01/30 07:49:46;;;;;;;4.57;0.77;;;;;;;;;;4999427;28;20765;-81
2023/01/30 07:52:14;;;;;;;0.30;0.30;;;;;;;;;;4990108;28;20226;-79
2023/01/30 07:54:40;;;;;;;0.10;0.10;;;;;;;;;;4996895;28;20233;-80
2023/01/30 07:57:07;;;;;;;0.17;0.17;;;;;;;;;;4984619;28;20221;-80
2023/01/30 07:59:35;;;;;;;0.40;0.40;;;;;;;;;;4983424;28;20229;-80
2023/01/30 08:02:01;;;;;;;0.10;0.10;;;;;;;;;;4996349;28;20748;-80
2023/01/30 08:04:26;;;;;;;1.53;1.43;;;;;;;;;;4980708;28;20236;-82
2023/01/30 08:06:54;;;;;;;0.53;0.53;;;;;;;;;;4971483;28;20222;-81
2023/01/30 08:09:20;;;;;;;0.20;0.20;;;;;;;;;;4993372;28;20251;-80
2023/01/30 08:11:45;;;;;;;0.10;0.10;;;;;;;;;;4990240;28;20328;-82
2023/01/30 08:14:13;;;;;;;0.73;0.73;;;;;;;;;;4998491;28;20224;-83
2023/01/30 08:16:41;;;;;;;1.83;1.63;;;;;;;;;;4994707;28;20233;-81
2023/01/30 08:19:07;;;;;;;0.30;0.30;;;;;;;;;;4973581;28;20217;-82
2023/01/30 08:21:34;;;;;;;0.33;0.33;;;;;;;;;;4970383;28;20228;-81
2023/01/30 08:24:00;;;;;;;0.10;0.10;;;;;;;;;;4984527;28;20255;-80
2023/01/30 08:26:25;;;;;;;0.10;0.10;;;;;;;;;;4968330;28;20225;-82
2023/01/30 08:28:51;;;;;;;0.10;0.10;;;;;;;;;;5000918;28;20227;-80
2023/01/30 08:31:17;;;;;;;0.10;0.10;;;;;;;;;;4996762;28;20300;-81
2023/01/30 08:33:43;;;;;;;1.90;1.53;;;;;;;;;;4997654;28;20225;-80
2023/01/30 08:36:08;;;;;;;0.30;0.30;;;;;;;;;;4971798;28;20214;-81
2023/01/30 08:38:34;;;;;;;0.83;0.83;;;;;;;;;;4996215;28;20264;-80
2023/01/30 08:40:59;;;;;;;0.20;0.20;;;;;;;;;;4994643;28;20288;-81
2023/01/30 08:43:27;;;;;;;0.10;0.10;;;;;;;;;;4966657;28;20249;-82
2023/01/30 08:45:53;;;;;;;0.30;0.30;;;;;;;;;;4968285;28;20222;-79
2023/01/30 08:48:19;;;;;;;0.30;0.30;;;;;;;;;;4960082;28;20218;-82
2023/01/30 08:50:44;;;;;;;0.33;0.33;;;;;;;;;;4993620;28;20237;-81
2023/01/30 08:53:10;;;;;;;2.00;1.80;;;;;;;;;;4983138;28;20232;-79
2023/01/30 08:55:35;;;;;;;0.10;0.10;;;;;;;;;;4985585;28;20234;-81
2023/01/30 08:58:01;;;;;;;0.10;0.10;;;;;;;;;;4967879;28;20697;-81
2023/01/30 09:00:27;;;;;;;1.27;1.03;;;;;;;;;;4968866;28;20572;-80
2023/01/30 09:02:56;;;;;;;1.70;1.60;;;;;;;;;;4965650;28;20260;-82
2023/01/30 09:05:21;;;;;;;3.97;0.87;;;;;;;;;;4981578;28;20229;-80
2023/01/30 09:07:47;;;;;;;0.40;0.40;;;;;;;;;;4983281;28;20233;-80
2023/01/30 09:10:12;;;;;;;0.10;0.10;;;;;;;;;;4983232;28;20554;-82
2023/01/30 09:12:38;;;;;;;0.20;0.20;;;;;;;;;;4971527;28;20663;-83
2023/01/30 09:15:04;;;;;;;0.20;0.20;;;;;;;;;;4981566;28;20217;-80
2023/01/30 09:17:30;;;;;;;0.20;0.20;;;;;;;;;;4962626;28;20221;-79
2023/01/30 09:19:57;;;;;;;0.40;0.40;;;;;;;;;;4998904;28;20321;-80
2023/01/30 09:22:23;;;;;;;1.80;0.50;;;;;;;;;;4966407;28;20234;-78
2023/01/30 09:24:48;;;;;;;13.27;3.73;;;;;;;;;;4988316;28;20245;-79
2023/01/30 09:27:14;;;;;;;14.50;3.60;;;;;;;;;;4983416;28;20221;-80
2023/01/30 09:29:42;;;;;;;13.00;3.60;;;;;;;;;;4985440;28;20231;-80
2023/01/30 09:32:08;;;;;;;10.87;3.40;;;;;;;;;;4989812;28;20246;-83
2023/01/30 09:34:35;;;;;;;17.30;3.73;;;;;;;;;;4970019;28;20606;-82
2023/01/30 09:37:03;;;;;;;15.30;3.47;;;;;;;;;;4984030;28;20219;-78
2023/01/30 09:39:29;;;;;;;15.03;3.50;;;;;;;;;;4992732;28;20248;-82
2023/01/30 09:42:04;;;;;;;14.30;3.00;;;;;;;;;;4983386;28;20320;-81
2023/01/30 09:44:32;;;;;;;13.43;3.37;;;;;;;;;;4993672;28;20232;-81
2023/01/30 09:47:08;;;;;;;23.20;4.07;;;;;;;;;;4975032;28;20233;-82
2023/01/30 09:50:08;;;;;;;15.27;3.80;;;;;;;;;;4976321;28;20285;-83
2023/01/30 09:52:55;;;;;;;13.47;4.37;;;;;;;;;;4994939;28;20241;-81
2023/01/30 09:55:22;;;;;;;10.73;2.87;;;;;;;;;;4955089;28;20249;-83
2023/01/30 09:57:47;;;;;;;10.10;3.47;;;;;;;;;;4974542;28;20327;-80
2023/01/30 10:00:34;;;;;;;11.70;3.10;;;;;;;;;;4946173;28;20572;-79
2023/01/30 10:03:09;;;;;;;20.47;3.70;;;;;;;;;;4991176;28;20213;-80
2023/01/30 10:05:59;;;;;;;11.87;2.93;;;;;;;;;;4991471;28;20698;-80
2023/01/30 10:08:43;;;;;;;11.40;3.67;;;;;;;;;;4962111;28;20248;-80
2023/01/30 10:11:11;;;;;;;9.43;3.47;;;;;;;;;;5005829;28;20304;-80
2023/01/30 10:13:53;;;;;;;10.37;3.67;;;;;;;;;;4991202;28;20363;-80
2023/01/30 10:16:37;;;;;;;14.30;3.70;;;;;;;;;;5011024;28;20225;-79
2023/01/30 10:19:30;;;;;;;12.47;3.70;;;;;;;;;;4980934;28;20308;-79
2023/01/30 10:22:06;;;;;;;14.47;3.50;;;;;;;;;;5000350;28;20221;-80
2023/01/30 10:24:58;;;;;;;13.13;3.33;;;;;;;;;;4979156;28;20237;-81
2023/01/30 10:27:23;;;;;;;18.60;3.63;;;;;;;;;;4983242;28;20227;-80
2023/01/30 10:29:57;;;;;;;10.67;3.43;;;;;;;;;;4969256;28;20229;-82
2023/01/30 10:32:27;;;;;;;12.70;3.70;;;;;;;;;;4980793;28;20237;-81
2023/01/30 10:34:56;;;;;;;14.03;3.70;;;;;;;;;;4994993;28;20256;-79
2023/01/30 10:38:03;;;;;;;14.97;3.97;;;;;;;;;;4979832;28;20265;-79
2023/01/30 10:40:35;;;;;;;13.33;3.50;;;;;;;;;;4963884;28;20466;-80
2023/01/30 10:43:18;;;;;;;11.23;3.17;;;;;;;;;;4994784;28;20221;-82
2023/01/30 10:46:03;;;;;;;14.87;3.77;;;;;;;;;;5007864;28;20293;-80
2023/01/30 10:48:52;;;;;;;15.33;3.50;;;;;;;;;;4996552;28;20231;-80
2023/01/30 10:51:31;;;;;;;17.30;3.23;;;;;;;;;;4997780;28;20237;-79
2023/01/30 10:53:58;;;;;;;11.37;3.10;;;;;;;;;;4960948;28;20345;-80
2023/01/30 10:56:29;;;;;;;7.67;2.50;;;;;;;;;;4988775;28;20755;-79
2023/01/30 10:59:18;;;;;;;11.47;2.73;;;;;;;;;;4997965;28;20237;-78
2023/01/30 11:01:49;;;;;;;11.97;3.03;;;;;;;;;;5011588;28;20237;-81
2023/01/30 11:04:33;;;;;;;9.13;2.60;;;;;;;;;;4973305;28;20608;-80
2023/01/30 11:06:59;;;;;;;7.73;2.47;;;;;;;;;;5015098;28;20225;-81
2023/01/30 11:09:37;;;;;;;7.03;2.63;;;;;;;;;;4969640;28;20229;-79
2023/01/30 11:12:03;;;;;;;15.10;2.77;;;;;;;;;;4965238;28;20488;-79
2023/01/30 11:14:29;;;;;;;8.80;2.70;;;;;;;;;;4980790;28;20240;-81
2023/01/30 11:16:55;;;;;;;9.07;2.93;;;;;;;;;;4959006;28;20226;-81
2023/01/30 11:19:29;;;;;;;7.57;2.93;;;;;;;;;;4980517;28;20221;-80
2023/01/30 11:21:55;;;;;;;9.70;2.70;;;;;;;;;;4969533;28;20240;-78
2023/01/30 11:24:31;;;;;;;7.30;2.50;;;;;;;;;;4973687;28;20222;-80
2023/01/30 11:27:29;;;;;;;12.37;3.00;;;;;;;;;;4983995;28;20225;-81
2023/01/30 11:30:03;;;;;;;11.93;3.17;;;;;;;;;;4985552;28;20726;-81
2023/01/30 11:32:31;;;;;;;10.40;2.70;;;;;;;;;;4964115;28;20276;-79
2023/01/30 11:35:08;;;;;;;5.57;2.23;;;;;;;;;;4967452;28;20229;-81
2023/01/30 11:37:34;;;;;;;11.40;2.97;;;;;;;;;;5011321;28;20277;-83
2023/01/30 11:40:06;;;;;;;8.17;2.90;;;;;;;;;;4981747;28;20244;-82
2023/01/30 11:42:32;;;;;;;6.47;2.33;;;;;;;;;;4972798;28;20234;-81
2023/01/30 11:45:01;;;;;;;9.37;2.93;;;;;;;;;;4946492;28;20476;-79
2023/01/30 11:47:29;;;;;;;7.17;2.30;;;;;;;;;;4976263;28;20248;-79
2023/01/30 11:49:57;;;;;;;7.63;2.50;;;;;;;;;;4969299;28;20264;-79
2023/01/30 11:52:28;;;;;;;8.17;2.60;;;;;;;;;;4979148;28;20241;-78
2023/01/30 11:55:00;;;;;;;6.03;1.80;;;;;;;;;;4962451;28;20233;-81
2023/01/30 11:57:26;;;;;;;0.10;0.10;;;;;;;;;;4979339;28;20707;-81
2023/01/30 11:59:59;;;;;;;0.37;0.37;;;;;;;;;;4979730;28;20228;-80
2023/01/30 12:02:34;;;;;;;0.23;0.23;;;;;;;;;;4975663;28;20256;-78
2023/01/30 12:05:01;;;;;;;0.10;0.10;;;;;;;;;;4968864;28;20229;-81
2023/01/30 12:07:28;;;;;;;0.10;0.10;;;;;;;;;;4966256;28;20248;-80
2023/01/30 12:09:56;;;;;;;0.10;0.10;;;;;;;;;;4968558;28;20645;-80
2023/01/30 12:12:36;;;;;;;0.20;0.20;;;;;;;;;;4955485;28;20245;-80
2023/01/30 12:15:21;;;;;;;0.10;0.10;;;;;;;;;;4976006;28;20225;-79
2023/01/30 12:17:51;;;;;;;0.20;0.20;;;;;;;;;;5024343;28;21105;-79
2023/01/30 12:20:42;;;;;;;0.87;0.87;;;;;;;;;;4973724;28;20222;-77
2023/01/30 12:23:21;;;;;;;0.30;0.30;;;;;;;;;;5010080;28;20231;-81
2023/01/30 12:25:46;;;;;;;0.10;0.10;;;;;;;;;;4993460;28;20340;-81
2023/01/30 12:28:40;;;;;;;0.20;0.20;;;;;;;;;;4989807;28;20861;-79
2023/01/30 12:31:36;;;;;;;0.20;0.20;;;;;;;;;;4962239;28;20217;-80
2023/01/30 12:34:04;;;;;;;0.10;0.10;;;;;;;;;;5007818;28;20225;-80
2023/01/30 12:37:01;;;;;;;0.10;0.10;;;;;;;;;;4956667;28;20229;-82
2023/01/30 12:39:45;;;;;;;0.10;0.10;;;;;;;;;;4969309;28;20288;-79
2023/01/30 12:42:17;;;;;;;0.10;0.10;;;;;;;;;;5008218;28;20217;-80
2023/01/30 12:45:10;;;;;;;0.10;0.10;;;;;;;;;;4994163;28;20260;-79
2023/01/30 12:47:47;;;;;;;0.30;0.30;;;;;;;;;;4977611;28;20288;-81
2023/01/30 12:50:28;;;;;;;0.73;0.73;;;;;;;;;;4993959;28;20221;-78
2023/01/30 12:53:16;;;;;;;0.10;0.10;;;;;;;;;;4995037;28;20265;-81
2023/01/30 12:56:11;;;;;;;4.53;2.80;;;;;;;;;;4975313;28;20234;-80
2023/01/30 12:58:37;;;;;;;0.40;0.40;;;;;;;;;;4972774;28;20252;-80
2023/01/30 13:01:23;;;;;;;0.10;0.10;;;;;;;;;;4994177;28;20241;-79
2023/01/30 13:03:54;;;;;;;0.37;0.37;;;;;;;;;;4993380;28;20372;-81
2023/01/30 13:06:38;;;;;;;3.93;0.83;;;;;;;;;;4979282;28;20225;-78
2023/01/30 13:09:27;;;;;;;0.10;0.10;;;;;;;;;;4978492;28;20252;-80
2023/01/30 13:12:11;;;;;;;4.23;2.10;;;;;;;;;;4961309;28;20257;-81
2023/01/30 13:14:45;;;;;;;9.83;2.50;;;;;;;;;;4994078;28;20245;-79
2023/01/30 13:17:25;;;;;;;10.20;2.93;;;;;;;;;;4992731;28;20228;-81
2023/01/30 13:20:24;;;;;;;10.43;2.93;;;;;;;;;;4974591;28;20312;-82
2023/01/30 13:23:09;;;;;;;9.17;2.77;;;;;;;;;;5009031;28;20229;-80
2023/01/30 13:25:42;;;;;;;16.73;3.67;;;;;;;;;;5011212;28;20233;-80
2023/01/30 13:28:15;;;;;;;18.03;3.57;;;;;;;;;;4977187;28;20232;-81
2023/01/30 13:30:41;;;;;;;8.57;3.27;;;;;;;;;;4955895;28;20229;-79
2023/01/30 13:33:27;;;;;;;9.63;3.40;;;;;;;;;;4981367;28;20225;-79
2023/01/30 13:35:58;;;;;;;10.13;4.77;;;;;;;;;;4986122;28;20243;-82
2023/01/30 13:38:25;;;;;;;8.80;2.20;;;;;;;;;;4993867;28;20224;-82
2023/01/30 13:40:52;;;;;;;13.23;3.97;;;;;;;;;;4953312;28;20221;-79
2023/01/30 13:43:28;;;;;;;18.23;7.67;;;;;;;;;;4970038;28;20213;-80
2023/01/30 13:45:57;;;;;;;8.73;3.30;;;;;;;;;;4991200;28;20235;-79
2023/01/30 13:48:50;;;;;;;8.83;3.20;;;;;;;;;;4986743;28;20256;-79
2023/01/30 13:51:31;;;;;;;7.47;3.10;;;;;;;;;;4997806;28;20673;-81
2023/01/30 13:54:11;;;;;;;12.40;3.23;;;;;;;;;;4958326;28;20690;-79
2023/01/30 13:57:16;;;;;;;11.03;2.57;;;;;;;;;;4990600;28;20230;-79
2023/01/30 14:00:09;;;;;;;8.67;2.70;;;;;;;;;;4990696;28;20225;-80
2023/01/30 14:02:45;;;;;;;11.70;2.67;;;;;;;;;;4991013;28;20613;-80
2023/01/30 14:05:15;;;;;;;8.00;3.00;;;;;;;;;;4977720;28;20232;-79
2023/01/30 14:07:44;;;;;;;10.67;3.30;;;;;;;;;;4978018;28;20579;-81
2023/01/30 14:10:15;;;;;;;7.03;2.03;;;;;;;;;;4980911;28;20216;-79
2023/01/30 14:12:47;;;;;;;5.53;2.23;;;;;;;;;;4993933;28;20249;-80
2023/01/30 14:15:13;;;;;;;10.73;4.80;;;;;;;;;;4970005;28;20252;-81
2023/01/30 14:18:01;;;;;;;11.43;2.83;;;;;;;;;;4977541;28;20229;-80
2023/01/30 14:20:44;;;;;;;7.37;2.57;;;;;;;;;;5007690;28;20284;-80
2023/01/30 14:23:28;;;;;;;7.00;2.50;;;;;;;;;;4962283;28;20221;-81
2023/01/30 14:25:57;;;;;;;13.23;3.20;;;;;;;;;;4962978;28;20652;-81
2023/01/30 14:28:23;;;;;;;14.67;3.17;;;;;;;;;;4951019;28;20253;-80
2023/01/30 14:30:50;;;;;;;10.20;2.80;;;;;;;;;;4990262;28;20249;-81
2023/01/30 14:33:22;;;;;;;8.73;3.30;;;;;;;;;;4959114;28;20248;-79
2023/01/30 14:35:59;;;;;;;7.70;3.23;;;;;;;;;;5008580;28;20264;-81
2023/01/30 14:38:25;;;;;;;7.97;2.50;;;;;;;;;;5007663;28;20702;-79
2023/01/30 14:40:59;;;;;;;6.90;2.50;;;;;;;;;;4991864;28;20229;-80
2023/01/30 14:43:46;;;;;;;9.53;2.03;;;;;;;;;;5008179;28;20243;-79
2023/01/30 14:46:17;;;;;;;9.97;3.20;;;;;;;;;;4968852;28;20235;-80
2023/01/30 14:49:03;;;;;;;7.83;2.53;;;;;;;;;;5011631;28;20291;-78
2023/01/30 14:51:41;;;;;;;7.07;2.43;;;;;;;;;;5007818;28;20698;-79
2023/01/30 14:54:13;;;;;;;19.43;3.80;;;;;;;;;;4987662;28;20762;-79
2023/01/30 14:57:00;;;;;;;7.97;3.47;;;;;;;;;;4996691;28;20280;-79
2023/01/30 14:59:29;;;;;;;9.20;3.03;;;;;;;;;;4993233;28;20871;-81
2023/01/30 15:01:56;;;;;;;7.30;2.93;;;;;;;;;;4994782;28;20222;-78
2023/01/30 15:04:22;;;;;;;8.37;2.80;;;;;;;;;;5009118;28;20217;-80
2023/01/30 15:06:52;;;;;;;7.67;3.27;;;;;;;;;;4977884;28;20272;-80